createdAt,value
2022-09-18T00:01:37.686Z,100.00
2022-09-18T00:04:09.061Z,100.00
2022-09-18T00:06:39.256Z,100.00
2022-09-18T00:09:10.139Z,100.00
2022-09-18T00:11:41.237Z,100.00
2022-09-18T00:14:11.056Z,100.00
2022-09-18T00:16:39.926Z,100.00
2022-09-18T00:19:08.928Z,100.00
2022-09-18T00:21:37.564Z,100.00
2022-09-18T00:24:06.598Z,100.00
2022-09-18T00:26:36.529Z,100.00
2022-09-18T00:29:06.377Z,100.00
2022-09-18T00:31:37.516Z,100.00
2022-09-18T00:34:07.705Z,100.00
2022-09-18T00:36:36.799Z,100.00
2022-09-18T00:39:05.661Z,100.00
2022-09-18T00:41:38.593Z,100.00
2022-09-18T00:44:38.777Z,100.00
2022-09-18T00:47:21.542Z,100.00
2022-09-18T00:49:54.279Z,100.00
2022-09-18T00:52:24.914Z,100.00
2022-09-18T00:54:55.535Z,100.00
2022-09-18T00:57:28.713Z,100.00
2022-09-18T01:00:11.268Z,100.00
2022-09-18T01:02:40.833Z,100.00
2022-09-18T01:05:10.340Z,100.00
2022-09-18T01:07:53.377Z,100.00
2022-09-18T01:10:34.427Z,100.00
2022-09-18T01:13:12.257Z,100.00
2022-09-18T01:15:45.931Z,100.00
2022-09-18T01:18:24.439Z,100.00
2022-09-18T01:21:05.797Z,100.00
2022-09-18T01:24:06.484Z,100.00
2022-09-18T01:26:46.274Z,100.00
2022-09-18T01:29:24.240Z,100.00
2022-09-18T01:31:58.588Z,100.00
2022-09-18T01:34:34.020Z,100.00
2022-09-18T01:37:07.413Z,100.00
2022-09-18T01:39:42.277Z,100.00
2022-09-18T01:42:13.522Z,100.00
2022-09-18T01:44:45.489Z,100.00
2022-09-18T01:47:15.994Z,100.00
2022-09-18T01:49:48.091Z,100.00
2022-09-18T01:52:22.318Z,100.00
2022-09-18T01:54:54.826Z,100.00
2022-09-18T01:57:26.792Z,100.00
2022-09-18T02:00:02.902Z,100.00
2022-09-18T02:02:47.432Z,100.00
2022-09-18T02:05:21.543Z,100.00
2022-09-18T02:08:00.927Z,100.00
2022-09-18T02:10:32.483Z,100.00
2022-09-18T02:13:04.381Z,100.00
2022-09-18T02:15:41.191Z,100.00
2022-09-18T02:18:23.394Z,100.00
2022-09-18T02:20:53.010Z,100.00
2022-09-18T02:23:21.455Z,100.00
2022-09-18T02:25:53.881Z,100.00
2022-09-18T02:28:26.024Z,100.00
2022-09-18T02:30:59.011Z,100.00
2022-09-18T02:33:29.057Z,100.00
2022-09-18T02:36:10.534Z,100.00
2022-09-18T02:38:50.091Z,100.00
2022-09-18T02:41:29.496Z,100.00
2022-09-18T02:44:02.381Z,100.00
2022-09-18T02:46:44.761Z,100.00
2022-09-18T02:49:20.129Z,100.00
2022-09-18T02:51:55.382Z,100.00
2022-09-18T02:54:31.741Z,100.00
2022-09-18T02:57:07.677Z,100.00
2022-09-18T02:59:43.247Z,100.00
2022-09-18T03:02:16.942Z,100.00
2022-09-18T03:04:45.742Z,100.00
2022-09-18T03:07:22.746Z,100.00
2022-09-18T03:09:52.288Z,100.00
2022-09-18T03:12:20.189Z,100.00
2022-09-18T03:14:49.589Z,100.00
2022-09-18T03:17:19.615Z,100.00
2022-09-18T03:19:48.373Z,100.00
2022-09-18T03:22:16.488Z,100.00
2022-09-18T03:24:44.454Z,100.00
2022-09-18T03:27:12.345Z,100.00
2022-09-18T03:29:40.338Z,100.00
2022-09-18T03:32:08.222Z,100.00
2022-09-18T03:34:44.030Z,100.00
2022-09-18T03:37:12.713Z,100.00
2022-09-18T03:39:40.994Z,100.00
2022-09-18T03:42:15.316Z,100.00
2022-09-18T03:44:43.394Z,100.00
2022-09-18T03:47:22.289Z,100.00
2022-09-18T03:49:51.909Z,100.00
2022-09-18T03:52:21.389Z,100.00
2022-09-18T03:55:01.580Z,100.00
2022-09-18T03:57:48.281Z,100.00
2022-09-18T04:00:35.087Z,100.00
2022-09-18T04:03:09.582Z,100.00
2022-09-18T04:05:41.963Z,100.00
2022-09-18T04:08:28.870Z,100.00
2022-09-18T04:11:11.497Z,100.00
2022-09-18T04:13:39.866Z,100.00
2022-09-18T04:16:10.701Z,100.00
2022-09-18T04:18:39.342Z,100.00
2022-09-18T04:21:09.753Z,100.00
2022-09-18T04:23:38.787Z,100.00
2022-09-18T04:26:10.393Z,100.00
2022-09-18T04:28:46.404Z,100.00
2022-09-18T04:31:15.529Z,100.00
2022-09-18T04:33:43.561Z,100.00
2022-09-18T04:36:13.431Z,100.00
2022-09-18T04:38:43.130Z,100.00
2022-09-18T04:41:13.571Z,100.00
2022-09-18T04:43:47.436Z,100.00
2022-09-18T04:46:17.245Z,100.00
2022-09-18T04:48:48.557Z,100.00
2022-09-18T04:51:19.478Z,100.00
2022-09-18T04:53:49.809Z,100.00
2022-09-18T04:56:18.497Z,100.00
2022-09-18T04:58:50.834Z,100.00
2022-09-18T05:01:19.841Z,100.00
2022-09-18T05:03:48.686Z,100.00
2022-09-18T05:06:27.093Z,100.00
2022-09-18T05:08:59.638Z,100.00
2022-09-18T05:11:28.487Z,100.00
2022-09-18T05:13:58.231Z,100.00
2022-09-18T05:16:29.693Z,100.00
2022-09-18T05:19:33.085Z,100.00
2022-09-18T05:22:08.385Z,100.00
2022-09-18T05:24:41.300Z,100.00
2022-09-18T05:27:09.209Z,100.00
2022-09-18T05:29:38.040Z,100.00
2022-09-18T05:32:23.021Z,100.00
2022-09-18T05:34:53.284Z,100.00
2022-09-18T05:37:22.915Z,100.00
2022-09-18T05:39:54.981Z,100.00
2022-09-18T05:42:23.565Z,100.00
2022-09-18T05:44:51.487Z,100.00
2022-09-18T05:47:26.020Z,100.00
2022-09-18T05:49:55.629Z,100.00
2022-09-18T05:52:27.187Z,100.00
2022-09-18T05:54:55.266Z,100.00
2022-09-18T05:57:23.314Z,100.00
2022-09-18T05:59:51.587Z,100.00
2022-09-18T06:02:19.562Z,100.00
2022-09-18T06:05:12.063Z,100.00
2022-09-18T06:07:41.663Z,100.00
2022-09-18T06:10:10.300Z,100.00
2022-09-18T06:12:38.325Z,99.73
2022-09-18T06:15:07.940Z,100.00
2022-09-18T06:17:36.986Z,100.00
2022-09-18T06:20:08.843Z,99.82
2022-09-18T06:22:38.025Z,99.51
2022-09-18T06:25:11.351Z,99.03
2022-09-18T06:27:40.804Z,99.45
2022-09-18T06:30:10.565Z,99.88
2022-09-18T06:32:39.122Z,99.30
2022-09-18T06:35:08.670Z,98.44
2022-09-18T06:37:36.864Z,99.44
2022-09-18T06:40:13.563Z,98.94
2022-09-18T06:43:11.393Z,99.31
2022-09-18T06:46:04.419Z,100.00
2022-09-18T06:48:39.311Z,100.00
2022-09-18T06:51:07.741Z,100.00
2022-09-18T06:53:50.837Z,100.00
2022-09-18T06:56:21.145Z,100.00
2022-09-18T06:58:49.051Z,100.00
2022-09-18T07:01:20.793Z,100.00
2022-09-18T07:03:51.986Z,100.00
2022-09-18T07:06:27.549Z,100.00
2022-09-18T07:08:57.191Z,100.00
2022-09-18T07:11:42.616Z,100.00
2022-09-18T07:14:10.648Z,100.00
2022-09-18T07:16:39.765Z,100.00
2022-09-18T07:19:08.295Z,100.00
2022-09-18T07:21:38.332Z,100.00
2022-09-18T07:24:07.390Z,99.11
2022-09-18T07:26:35.988Z,97.42
2022-09-18T07:29:09.996Z,95.39
2022-09-18T07:31:39.134Z,95.42
2022-09-18T07:34:10.526Z,96.67
2022-09-18T07:36:38.727Z,95.38
2022-09-18T07:39:06.945Z,97.22
2022-09-18T07:41:55.080Z,96.39
2022-09-18T07:44:26.172Z,95.65
2022-09-18T07:46:55.302Z,92.75
2022-09-18T07:49:24.277Z,93.20
2022-09-18T07:51:53.187Z,93.42
2022-09-18T07:54:21.663Z,95.14
2022-09-18T07:57:12.646Z,91.89
2022-09-18T07:59:56.088Z,91.50
2022-09-18T08:02:26.699Z,91.63
2022-09-18T08:04:55.451Z,90.42
2022-09-18T08:07:37.081Z,90.51
2022-09-18T08:10:31.649Z,88.97
2022-09-18T08:13:20.493Z,89.05
2022-09-18T08:16:22.795Z,88.83
2022-09-18T08:19:29.633Z,87.57
2022-09-18T08:22:32.987Z,87.74
2022-09-18T08:25:01.276Z,87.15
2022-09-18T08:27:29.855Z,86.04
2022-09-18T08:29:58.222Z,84.00
2022-09-18T08:32:29.104Z,85.89
2022-09-18T08:34:58.446Z,83.12
2022-09-18T08:37:26.526Z,84.77
2022-09-18T08:40:15.036Z,84.39
2022-09-18T08:43:03.746Z,85.20
2022-09-18T08:45:44.040Z,86.09
2022-09-18T08:48:20.734Z,86.60
2022-09-18T08:50:58.891Z,86.39
2022-09-18T08:53:33.961Z,87.30
2022-09-18T08:56:26.799Z,87.59
2022-09-18T08:59:35.873Z,85.23
2022-09-18T09:02:24.294Z,84.35
2022-09-18T09:04:59.605Z,84.23
2022-09-18T09:07:56.944Z,82.99
2022-09-18T09:10:38.281Z,82.06
2022-09-18T09:13:24.680Z,82.09
2022-09-18T09:15:57.761Z,80.43
2022-09-18T09:18:33.085Z,82.06
2022-09-18T09:21:13.907Z,82.22
2022-09-18T09:23:51.879Z,82.04
2022-09-18T09:26:45.893Z,81.15
2022-09-18T09:29:43.476Z,80.52
2022-09-18T09:32:44.089Z,76.61
2022-09-18T09:35:29.630Z,77.64
2022-09-18T09:38:38.769Z,76.10
2022-09-18T09:41:15.082Z,73.75
2022-09-18T09:43:49.402Z,73.81
2022-09-18T09:46:31.085Z,74.35
2022-09-18T09:49:08.212Z,74.18
2022-09-18T09:51:44.457Z,74.01
2022-09-18T09:54:14.961Z,73.74
2022-09-18T09:56:49.713Z,75.72
2022-09-18T09:59:27.561Z,77.42
2022-09-18T10:02:37.592Z,78.73
2022-09-18T10:05:18.177Z,78.27
2022-09-18T10:07:51.699Z,75.12
2022-09-18T10:10:30.715Z,74.20
2022-09-18T10:13:02.935Z,75.74
2022-09-18T10:15:38.533Z,76.16
2022-09-18T10:18:16.539Z,73.16
2022-09-18T10:20:48.572Z,74.68
2022-09-18T10:23:34.041Z,73.35
2022-09-18T10:26:06.120Z,73.01
2022-09-18T10:28:35.033Z,72.70
2022-09-18T10:31:07.221Z,72.40
2022-09-18T10:33:41.469Z,72.76
2022-09-18T10:36:25.978Z,71.47
2022-09-18T10:38:56.130Z,70.07
2022-09-18T10:41:35.748Z,71.08
2022-09-18T10:44:20.118Z,69.76
2022-09-18T10:46:57.642Z,71.31
2022-09-18T10:49:31.883Z,71.12
2022-09-18T10:52:25.283Z,69.49
2022-09-18T10:55:10.363Z,70.15
2022-09-18T10:57:44.999Z,70.39
2022-09-18T11:00:37.294Z,69.79
2022-09-18T11:03:20.881Z,69.76
2022-09-18T11:05:53.232Z,69.17
2022-09-18T11:08:27.707Z,69.47
2022-09-18T11:11:04.139Z,70.16
2022-09-18T11:13:43.055Z,69.57
2022-09-18T11:16:26.953Z,71.31
2022-09-18T11:19:07.984Z,70.93
2022-09-18T11:21:46.371Z,71.36
2022-09-18T11:24:35.018Z,70.74
2022-09-18T11:27:21.185Z,68.12
2022-09-18T11:29:51.801Z,68.91
2022-09-18T11:32:25.152Z,66.76
2022-09-18T11:34:57.751Z,69.38
2022-09-18T11:37:34.442Z,67.89
2022-09-18T11:40:07.588Z,68.96
2022-09-18T11:42:43.400Z,68.98
2022-09-18T11:45:30.882Z,69.80
2022-09-18T11:48:06.801Z,68.45
2022-09-18T11:50:38.226Z,69.03
2022-09-18T11:53:15.961Z,68.91
2022-09-18T11:55:49.903Z,67.16
2022-09-18T11:58:25.901Z,66.93
2022-09-18T12:01:04.979Z,66.49
2022-09-18T12:03:43.431Z,64.99
2022-09-18T12:06:18.744Z,65.27
2022-09-18T12:08:54.102Z,65.84
2022-09-18T12:11:39.781Z,65.83
2022-09-18T12:14:16.953Z,66.64
2022-09-18T12:17:01.168Z,66.70
2022-09-18T12:19:37.301Z,68.79
2022-09-18T12:22:13.838Z,68.13
2022-09-18T12:24:41.839Z,67.96
2022-09-18T12:27:27.793Z,68.73
2022-09-18T12:30:08.428Z,69.37
2022-09-18T12:33:05.359Z,70.61
2022-09-18T12:35:46.482Z,68.86
2022-09-18T12:38:28.460Z,67.85
2022-09-18T12:41:13.688Z,66.94
2022-09-18T12:44:07.142Z,66.97
2022-09-18T12:46:52.785Z,68.00
2022-09-18T12:49:39.997Z,66.67
2022-09-18T12:52:18.209Z,66.71
2022-09-18T12:55:11.741Z,65.70
2022-09-18T12:57:50.400Z,66.13
2022-09-18T13:00:19.416Z,66.59
2022-09-18T13:02:54.215Z,66.19
2022-09-18T13:05:31.558Z,66.77
2022-09-18T13:08:08.018Z,67.53
2022-09-18T13:10:39.782Z,66.30
2022-09-18T13:13:15.593Z,66.61
2022-09-18T13:15:49.001Z,66.69
2022-09-18T13:18:28.605Z,66.70
2022-09-18T13:21:00.999Z,66.11
2022-09-18T13:23:34.356Z,66.20
2022-09-18T13:26:05.243Z,66.12
2022-09-18T13:28:34.339Z,65.85
2022-09-18T13:31:28.788Z,67.29
2022-09-18T13:33:59.292Z,66.94
2022-09-18T13:36:31.479Z,67.57
2022-09-18T13:39:02.320Z,67.82
2022-09-18T13:41:42.510Z,67.25
2022-09-18T13:44:19.902Z,67.97
2022-09-18T13:46:49.510Z,67.03
2022-09-18T13:49:23.510Z,67.92
2022-09-18T13:51:53.226Z,67.85
2022-09-18T13:54:28.214Z,68.47
2022-09-18T13:57:32.802Z,67.77
2022-09-18T14:00:06.227Z,67.20
2022-09-18T14:02:41.178Z,65.76
2022-09-18T14:05:34.106Z,66.64
2022-09-18T14:08:40.961Z,67.40
2022-09-18T14:11:15.378Z,68.51
2022-09-18T14:13:51.356Z,68.34
2022-09-18T14:16:41.346Z,68.07
2022-09-18T14:19:28.661Z,68.06
2022-09-18T14:21:57.830Z,65.83
2022-09-18T14:24:57.927Z,65.37
2022-09-18T14:27:39.417Z,65.60
2022-09-18T14:30:17.469Z,66.63
2022-09-18T14:32:57.013Z,66.14
2022-09-18T14:35:33.958Z,65.52
2022-09-18T14:38:02.550Z,66.18
2022-09-18T14:40:32.527Z,65.42
2022-09-18T14:43:02.320Z,66.93
2022-09-18T14:45:31.960Z,66.70
2022-09-18T14:48:00.448Z,66.51
2022-09-18T14:50:32.046Z,65.55
2022-09-18T14:53:02.078Z,65.35
2022-09-18T14:55:36.634Z,66.85
2022-09-18T14:58:08.262Z,66.46
2022-09-18T15:00:39.719Z,66.48
2022-09-18T15:03:15.470Z,66.33
2022-09-18T15:05:43.768Z,66.43
2022-09-18T15:08:18.855Z,67.13
2022-09-18T15:10:50.601Z,66.91
2022-09-18T15:13:21.816Z,65.06
2022-09-18T15:15:59.454Z,65.76
2022-09-18T15:18:29.338Z,64.59
2022-09-18T15:21:01.759Z,65.06
2022-09-18T15:23:33.940Z,66.86
2022-09-18T15:26:05.789Z,65.64
2022-09-18T15:28:37.736Z,63.26
2022-09-18T15:31:09.427Z,63.80
2022-09-18T15:33:40.268Z,63.43
2022-09-18T15:36:08.624Z,64.52
2022-09-18T15:38:42.598Z,63.46
2022-09-18T15:41:33.969Z,63.35
2022-09-18T15:44:03.761Z,63.98
2022-09-18T15:46:33.321Z,61.90
2022-09-18T15:49:04.052Z,63.84
2022-09-18T15:51:33.967Z,61.70
2022-09-18T15:54:07.558Z,62.99
2022-09-18T15:56:36.629Z,64.27
2022-09-18T15:59:08.692Z,64.28
2022-09-18T16:01:40.863Z,64.36
2022-09-18T16:04:24.940Z,65.43
2022-09-18T16:06:57.458Z,66.07
2022-09-18T16:09:40.168Z,65.94
2022-09-18T16:12:28.200Z,67.33
2022-09-18T16:15:16.725Z,69.17
2022-09-18T16:18:05.038Z,67.32
2022-09-18T16:20:36.769Z,69.43
2022-09-18T16:23:28.315Z,68.52
2022-09-18T16:26:10.518Z,69.94
2022-09-18T16:28:42.878Z,69.87
2022-09-18T16:31:14.229Z,69.01
2022-09-18T16:33:51.733Z,68.79
2022-09-18T16:36:31.860Z,68.71
2022-09-18T16:39:01.490Z,67.46
2022-09-18T16:41:29.932Z,68.99
2022-09-18T16:43:57.955Z,70.65
2022-09-18T16:46:31.605Z,69.61
2022-09-18T16:48:59.615Z,71.45
2022-09-18T16:51:27.660Z,71.24
2022-09-18T16:53:55.516Z,74.71
2022-09-18T16:56:27.347Z,74.93
2022-09-18T16:58:57.632Z,74.97
2022-09-18T17:01:28.032Z,73.43
2022-09-18T17:03:56.033Z,75.75
2022-09-18T17:06:24.443Z,75.26
2022-09-18T17:08:52.813Z,73.66
2022-09-18T17:11:20.660Z,74.78
2022-09-18T17:13:48.675Z,74.81
2022-09-18T17:16:35.329Z,76.21
2022-09-18T17:19:16.252Z,78.23
2022-09-18T17:21:44.789Z,76.34
2022-09-18T17:24:13.051Z,77.01
2022-09-18T17:26:42.585Z,77.90
2022-09-18T17:29:12.187Z,81.10
2022-09-18T17:31:40.303Z,83.27
2022-09-18T17:34:09.959Z,82.97
2022-09-18T17:36:41.030Z,87.33
2022-09-18T17:39:09.179Z,87.71
2022-09-18T17:41:37.276Z,90.41
2022-09-18T17:44:06.052Z,93.28
2022-09-18T17:46:34.971Z,92.31
2022-09-18T17:49:04.261Z,92.39
2022-09-18T17:51:35.940Z,96.36
2022-09-18T17:54:05.907Z,94.39
2022-09-18T17:56:34.917Z,91.22
2022-09-18T17:59:05.395Z,92.94
2022-09-18T18:01:37.024Z,94.41
2022-09-18T18:04:05.975Z,91.18
2022-09-18T18:06:36.855Z,90.95
2022-09-18T18:09:06.761Z,89.84
2022-09-18T18:11:35.601Z,91.19
2022-09-18T18:14:04.287Z,85.97
2022-09-18T18:16:34.319Z,84.38
2022-09-18T18:19:04.785Z,84.64
2022-09-18T18:21:36.060Z,83.92
2022-09-18T18:24:09.028Z,83.91
2022-09-18T18:26:38.028Z,85.88
2022-09-18T18:29:08.131Z,82.81
2022-09-18T18:31:37.867Z,83.88
2022-09-18T18:34:05.990Z,84.62
2022-09-18T18:36:35.808Z,86.51
2022-09-18T18:39:05.850Z,83.94
2022-09-18T18:41:34.077Z,81.94
2022-09-18T18:44:05.702Z,80.88
2022-09-18T18:46:39.491Z,80.86
2022-09-18T18:49:10.131Z,80.13
2022-09-18T18:51:42.883Z,79.53
2022-09-18T18:54:12.277Z,78.99
2022-09-18T18:56:41.380Z,79.89
2022-09-18T18:59:12.635Z,80.07
2022-09-18T19:01:42.763Z,81.55
2022-09-18T19:04:12.851Z,80.53
2022-09-18T19:06:44.592Z,80.89
2022-09-18T19:09:18.096Z,84.86
2022-09-18T19:11:49.267Z,83.27
2022-09-18T19:14:19.420Z,82.75
2022-09-18T19:16:49.207Z,83.92
2022-09-18T19:19:19.090Z,85.72
2022-09-18T19:21:49.874Z,84.13
2022-09-18T19:24:19.479Z,83.77
2022-09-18T19:26:48.407Z,86.38
2022-09-18T19:29:19.697Z,86.14
2022-09-18T19:31:48.520Z,85.65
2022-09-18T19:34:19.462Z,84.40
2022-09-18T19:36:50.322Z,83.19
2022-09-18T19:39:20.824Z,84.32
2022-09-18T19:41:53.400Z,84.95
2022-09-18T19:44:26.833Z,85.85
2022-09-18T19:46:57.078Z,85.20
2022-09-18T19:49:31.772Z,86.63
2022-09-18T19:52:02.420Z,87.35
2022-09-18T19:54:31.198Z,88.57
2022-09-18T19:56:59.438Z,90.36
2022-09-18T19:59:27.242Z,93.08
2022-09-18T20:01:56.648Z,93.69
2022-09-18T20:04:24.698Z,100.00
2022-09-18T20:06:52.846Z,100.00
2022-09-18T20:09:22.905Z,100.00
2022-09-18T20:11:50.810Z,100.00
2022-09-18T20:14:19.206Z,100.00
2022-09-18T20:16:47.041Z,100.00
2022-09-18T20:19:15.829Z,100.00
2022-09-18T20:21:43.903Z,100.00
2022-09-18T20:24:12.150Z,100.00
2022-09-18T20:26:42.805Z,100.00
2022-09-18T20:29:16.143Z,100.00
2022-09-18T20:31:46.104Z,100.00
2022-09-18T20:34:15.630Z,100.00
2022-09-18T20:36:43.557Z,100.00
2022-09-18T20:39:11.454Z,100.00
2022-09-18T20:41:40.752Z,100.00
2022-09-18T20:44:09.923Z,100.00
2022-09-18T20:46:39.519Z,100.00
2022-09-18T20:49:08.109Z,100.00
2022-09-18T20:51:36.441Z,100.00
2022-09-18T20:54:07.343Z,100.00
2022-09-18T20:56:41.270Z,100.00
2022-09-18T20:59:15.968Z,100.00
2022-09-18T21:01:44.403Z,100.00
2022-09-18T21:04:17.299Z,100.00
2022-09-18T21:06:46.852Z,100.00
2022-09-18T21:09:15.647Z,100.00
2022-09-18T21:11:46.211Z,100.00
2022-09-18T21:14:17.746Z,100.00
2022-09-18T21:16:45.634Z,100.00
2022-09-18T21:19:15.116Z,100.00
2022-09-18T21:21:43.188Z,100.00
2022-09-18T21:24:12.296Z,100.00
2022-09-18T21:26:42.286Z,100.00
2022-09-18T21:29:17.550Z,100.00
2022-09-18T21:31:48.520Z,100.00
2022-09-18T21:34:24.170Z,100.00
2022-09-18T21:36:54.263Z,100.00
2022-09-18T21:39:22.389Z,100.00
2022-09-18T21:41:53.179Z,100.00
2022-09-18T21:44:27.307Z,100.00
2022-09-18T21:46:58.749Z,100.00
2022-09-18T21:49:27.675Z,100.00
2022-09-18T21:51:56.505Z,100.00
2022-09-18T21:54:25.308Z,100.00
2022-09-18T21:56:53.826Z,100.00
2022-09-18T21:59:23.303Z,100.00
2022-09-18T22:01:52.870Z,100.00
2022-09-18T22:04:23.110Z,100.00
2022-09-18T22:06:51.545Z,100.00
2022-09-18T22:09:22.134Z,100.00
2022-09-18T22:11:50.837Z,100.00
2022-09-18T22:14:22.655Z,100.00
2022-09-18T22:16:53.142Z,100.00
2022-09-18T22:19:22.615Z,100.00
2022-09-18T22:21:51.753Z,100.00
2022-09-18T22:24:22.313Z,100.00
2022-09-18T22:26:53.520Z,100.00
2022-09-18T22:29:23.956Z,100.00
2022-09-18T22:31:52.566Z,100.00
2022-09-18T22:34:23.958Z,100.00
2022-09-18T22:36:52.322Z,100.00
2022-09-18T22:39:22.096Z,100.00
2022-09-18T22:41:51.427Z,100.00
2022-09-18T22:44:21.280Z,100.00
2022-09-18T22:46:51.926Z,100.00
2022-09-18T22:49:21.000Z,100.00
2022-09-18T22:51:51.251Z,100.00
2022-09-18T22:54:24.700Z,100.00
2022-09-18T22:56:53.755Z,100.00
2022-09-18T22:59:23.728Z,100.00
2022-09-18T23:01:53.775Z,100.00
2022-09-18T23:04:23.512Z,100.00
2022-09-18T23:06:53.317Z,100.00
2022-09-18T23:09:21.867Z,100.00
2022-09-18T23:11:52.941Z,100.00
2022-09-18T23:14:23.430Z,100.00
2022-09-18T23:16:52.274Z,100.00
2022-09-18T23:19:22.513Z,100.00
2022-09-18T23:21:53.892Z,100.00
2022-09-18T23:24:22.589Z,100.00
2022-09-18T23:26:52.768Z,100.00
2022-09-18T23:29:22.374Z,100.00
2022-09-18T23:31:53.273Z,100.00
2022-09-18T23:34:23.476Z,100.00
2022-09-18T23:36:54.098Z,100.00
2022-09-18T23:39:25.040Z,100.00
2022-09-18T23:41:53.132Z,100.00
2022-09-18T23:44:23.185Z,100.00
2022-09-18T23:46:52.452Z,100.00
2022-09-18T23:49:23.165Z,100.00
2022-09-18T23:51:54.061Z,100.00
2022-09-18T23:54:23.843Z,100.00
2022-09-18T23:56:52.238Z,100.00
2022-09-18T23:59:22.978Z,100.00
